Raisin, California
Current Conditions -  °F | °C
As of 12:39 PM on Monday 22 Dec 2014 (Local Time) from KFAT Reporting Station
Haze Haze  
Wind Chill: 60°   Ceiling: 1400
Heat Index: 60°   Visibility: 5mi
Dew Point: 54°   Wind: 6mph
Humidity: 80%   Direction: 270°W
Pressure: 30.21"   Gusts: NA
Location:  36.6°N, 119.9°W
Report Text: KFAT 222039Z 27005KT 5SM HZ BKN014 BKN019 OVC036 16/12 A3021 RMK AO2 T01560122
Loading
Personal Weather Stations






























Interactive Weather Map New forecast layout! Learn more

10-Day Weather Forecast

Advertisements
Track Severe Weather on mobile